Главная страница
METAR-TAF:

METAR-TAF

Аэропорты :

Франклин округ, Вермонт, США

широта: 44-56-25N, долгота: 073-05-51W, высота над уровнем моря: 69 м

Текущие метеонаблюдения

Эта сводка был подготовлена 19 минут назад, в 09:55 UTC
Ветер 4 Узел от южный
Температура 14°C
Влажность 82%
Давление 1011 hPa
Видимость: 16.1 км
ясное небо

METAR: KFSO 240955Z AUTO 18004KT 10SM CLR 14/11 A2985 RMK AO2 T01350113

Время: 06:14 (10:14 UTC)


TAF: отсутствует

Метеонаблюдения и прогнозы для более 4000 аэропортов (сводки METAR и TAF).

Имеющиеся станции представлены на карте желтыми и красными точками.

Чтобы увидеть название станции, наведите на нее мышь.

Затем щелкните, чтобы увидеть метеонаблюдения и метеопрогнозы.

Управление картой: чтобы увеличить масштаб, щелкните зеленые кнопки с черным крестиком; чтобы уменьшить масштаб, щелкните зеленую кнопку с тире; для просмотра соседних карт щелкайте зеленые стрелки.


METAR-TAF: